Nearby METAR Reports

METAR is the scheduled surface weather observation taken hourly at civil and military airport locations.

METAR is an acronym from the French language and roughly translates as Aviation Routine Weather Report.

 

EGPL - Benbecula Island, United Kingdom
Distance from station: WNW 41mi, 66km
Updated: 23/01/2019 05:50
Mostly cloudy
Mostly cloudy
 Wind from S
Wind: S 6 mph , 9 km/h
Temperature: 1°C
Wind Chill: -2°C
Dew Point: 0°C
Humidity: 93%
Barometer: 999 hPa
Clouds: Mostly cloudy
Visibility: 6 miles , 10 km
Cloud details: Few Clouds 853 m
Partly cloudy 1219 m
Mostly cloudy 1463 m
2019/01/23 05:50 EGPL 230550Z AUTO 19005KT 9999 FEW028/// SCT040/// BKN048/// 01/M00 Q0999
EGPU - Tiree Island, United Kingdom
Distance from station: SSW 56mi, 90km
Updated: 23/01/2019 05:50
Clear
Clear
 Wind from E
Wind: E 2 mph , 4 km/h
Temperature: 2°C
Dew Point: 0°C
Humidity: 87%
Barometer: 1000 hPa
Clouds: Clear
Visibility: 6 miles , 10 km
2019/01/23 05:50 EGPU 230550Z AUTO 08002KT 9999 NCD 02/00 Q1000 RERA
 
EGEO - Oban Airport, United Kingdom
Distance from station: SE 65mi, 105km
Updated: 22/01/2019 15:20
NOT Current
Overcast
Overcast
 Wind from SSW
Wind: SSW 7 mph , 11 km/h
Temperature: 1°C
Wind Chill: -2°C
Dew Point: 0°C
Humidity: 93%
Barometer: 995 hPa
Clouds: Overcast
Visibility: 6 miles , 10 km
Cloud details: Few Clouds 152 m
Overcast 457 m
2019/01/22 15:20 EGEO 221520Z 20006KT 9999 FEW005 OVC015 01/00 Q0995
EGPO - Stornoway, United Kingdom
Distance from station: 0 66mi, 106km
Updated: 23/01/2019 05:50
Nearby showers, Mostly cloudy
Nearby showers, Mostly cloudy
 Wind from WSW
Wind: WSW 5 mph , 7 km/h
Temperature: 1°C
Wind Chill: -2°C
Dew Point: 0°C
Humidity: 93%
Barometer: 998 hPa
Summary: Nearby Showers
Clouds: Mostly cloudy
Visibility: 4 miles , 7 km
Cloud details: Partly cloudy 427 m
Mostly cloudy 701 m
2019/01/23 05:50 EGPO 230550Z 25004KT 7000 VCSH SCT014CB BKN023 01/00 Q0998
 
EGPE - Inverness/Dalcro, United Kingdom
Distance from station: ENE 88mi, 141km
Updated: 23/01/2019 05:50
Clear
Clear
 Wind from SW
Wind: SW 9 mph , 15 km/h
Temperature: -2°C
Wind Chill: -7°C
Dew Point: -3°C
Humidity: 93%
Barometer: 999 hPa
Summary: Clear
Visibility: greater than 7 miles , 10 km
2019/01/23 05:50 EGPE 230550Z 22008KT CAVOK M02/M03 Q0999
EGQA - Tain Range (saws, United Kingdom
Distance from station: ENE 97mi, 156km
Updated: 22/01/2019 14:50
NOT Current
Few Clouds
Few Clouds
 Wind from calm
Wind: Calm
Clouds: Few Clouds
Visibility: 6 miles , 10 km
Cloud details: Few Clouds 610 m
2019/01/22 14:50 EGQA 221450Z 00000KT 9999 FEW020 03/// Q0993 BLU
 
EGQK - Kinloss Raf, United Kingdom
Distance from station: ENE 107mi, 171km
Updated: 23/01/2019 05:50
Clear
Clear
 Wind from SSW
Wind: SSW 8 mph , 13 km/h
Temperature: -1°C
Wind Chill: -6°C
Dew Point: -2°C
Humidity: 93%
Barometer: 998 hPa
Clouds: Clear
Visibility: 6 miles , 10 km
2019/01/23 05:50 EGQK 230550Z AUTO 20007KT 9999 NCD M01/M02 Q0998
EGPI - Islay/Port Ellen, United Kingdom
Distance from station: S 110mi, 177km
Updated: 23/01/2019 05:50
Clear
Clear
 Wind from E
Wind: E 3 mph , 6 km/h
Temperature: -2°C
Dew Point: -3°C
Humidity: 93%
Barometer: 1000 hPa
Clouds: Clear
Visibility: 6 miles , 10 km
2019/01/23 05:50 EGPI 230550Z AUTO 10003KT 9999 NCD M02/M03 Q1000
 
EGQS - Lossiemouth Raf, United Kingdom
Distance from station: ENE 117mi, 188km
Updated: 23/01/2019 05:50
Clear
Clear
 Wind from SW
Wind: SW 8 mph , 13 km/h
Temperature: -2°C
Wind Chill: -7°C
Dew Point: -3°C
Humidity: 93%
Barometer: 998 hPa
Summary: Clear
Visibility: greater than 7 miles , 10 km
2019/01/23 05:50 EGQS 230550Z 22007KT CAVOK M02/M03 Q0998 BLU
EGPF - Glasgow Airport, United Kingdom
Distance from station: SE 121mi, 195km
Updated: 23/01/2019 05:50
Clear
Clear
 Wind from W
Wind: W 2 mph , 4 km/h
Temperature: -7°C
Dew Point: -8°C
Humidity: 93%
Barometer: 1000 hPa
Clouds: Clear
Visibility: 5 miles , 8 km
2019/01/23 05:50 EGPF 230550Z AUTO 26002KT 8000 NCD M07/M08 Q1000
 
EGEC - Campbeltown, United Kingdom
Distance from station: SSE 129mi, 207km
Updated: 22/01/2019 17:20
NOT Current
Partly cloudy
Partly cloudy
 Wind from WNW
Wind: WNW 6 mph , 9 km/h
Temperature: 2°C
Wind Chill: -1°C
Dew Point: 1°C
Humidity: 93%
Barometer: 995 hPa
Clouds: Partly cloudy
Visibility: 6 miles , 10 km
Cloud details: Partly cloudy 305 m
2019/01/22 17:20 EGEC 221720Z 30005KT 270V350 9999 SCT010 02/01 Q0995
EGPN - Dundee/Riverside, United Kingdom
Distance from station: ESE 137mi, 221km
Updated: 22/01/2019 20:20
NOT Current
Few Clouds
Few Clouds
 Wind from NW
Wind: NW 3 mph , 6 km/h
Temperature: -1°C
Dew Point: -2°C
Humidity: 93%
Barometer: 996 hPa
Clouds: Few Clouds
Visibility: 6 miles , 10 km
Cloud details: Few Clouds 762 m
2019/01/22 20:20 EGPN 222020Z 32003KT 9999 FEW025 M01/M02 Q0996
 
EGPK - Prestwick(Civ/Na, United Kingdom
Distance from station: SSE 139mi, 224km
Updated: 23/01/2019 05:50
Partly cloudy
Partly cloudy
 Wind from calm
Wind: Calm
Temperature: -3°C
Dew Point: -4°C
Humidity: 93%
Barometer: 1001 hPa
Clouds: Partly cloudy
Visibility: 6 miles , 10 km
Cloud details: Few Clouds 457 m
Partly cloudy 914 m
2019/01/23 05:50 EGPK 230550Z 00000KT 9999 FEW015 SCT030 M03/M04 Q1001
EGQL - Leuchars Raf, United Kingdom
Distance from station: ESE 145mi, 233km
Updated: 23/01/2019 05:50
Clear
Clear
 Wind from W
Wind: W 7 mph , 11 km/h
Temperature: -3°C
Wind Chill: -7°C
Dew Point: -4°C
Humidity: 93%
Barometer: 999 hPa
Summary: Clear
Visibility: greater than 7 miles , 10 km
2019/01/23 05:50 EGQL 230550Z 26006KT CAVOK M03/M04 Q0999 BLU
 
EGPH - Edinburgh Airpor, United Kingdom
Distance from station: SE 145mi, 234km
Updated: 23/01/2019 05:50
Clear
Clear
 Wind from WSW
Wind: WSW 5 mph , 7 km/h
Temperature: -5°C
Wind Chill: -8°C
Dew Point: -6°C
Humidity: 93%
Barometer: 1000 hPa
Summary: Clear
Visibility: greater than 7 miles , 10 km
2019/01/23 05:50 EGPH 230550Z 25004KT CAVOK M05/M06 Q1000
EGPC - Wick, United Kingdom
Distance from station: NE 146mi, 234km
Updated: 23/01/2019 05:50
Light freezing, Rain, Clear
Light freezing, Rain, Clear
 Wind from W
Wind: W 9 mph , 15 km/h
Temperature: -1°C
Wind Chill: -6°C
Dew Point: -1°C
Humidity: 100%
Barometer: 997 hPa
Summary: Light freezing, Rain
Clouds: Clear
Visibility: 6 miles , 10 km
2019/01/23 05:50 EGPC 230550Z AUTO 28008KT 9999 -FZRA NCD M01/M01 Q0997

-

free counters
QR Code Twitter Scottish Weather Network UK Weather Network
Argyll House B & B

Argyll House B & B is situated in North West Skye and is the perfect base to see all that the Isle of Skye has to offer.
Bookings been taken for 2019.